sensor_id;sensor_type;location;lat;lon;timestamp;P1;durP1;ratioP1;P2;durP2;ratioP2
2868;SDS011;1442;47.448;8.582;2024-01-06T00:01:52;14.93;;;10.55;;
2868;SDS011;1442;47.448;8.582;2024-01-06T00:04:19;13.15;;;10.15;;
2868;SDS011;1442;47.448;8.582;2024-01-06T00:06:47;14.10;;;9.85;;
2868;SDS011;1442;47.448;8.582;2024-01-06T00:09:14;14.70;;;9.93;;
2868;SDS011;1442;47.448;8.582;2024-01-06T00:11:40;11.50;;;9.07;;
2868;SDS011;1442;47.448;8.582;2024-01-06T00:14:07;14.70;;;9.00;;
2868;SDS011;1442;47.448;8.582;2024-01-06T00:16:34;11.52;;;8.60;;
2868;SDS011;1442;47.448;8.582;2024-01-06T00:19:01;12.65;;;9.57;;
2868;SDS011;1442;47.448;8.582;2024-01-06T00:21:28;13.05;;;9.15;;
2868;SDS011;1442;47.448;8.582;2024-01-06T00:23:56;13.15;;;9.50;;
2868;SDS011;1442;47.448;8.582;2024-01-06T00:26:22;11.32;;;9.15;;
2868;SDS011;1442;47.448;8.582;2024-01-06T00:28:49;12.15;;;9.30;;
2868;SDS011;1442;47.448;8.582;2024-01-06T00:31:16;10.90;;;7.90;;
2868;SDS011;1442;47.448;8.582;2024-01-06T00:33:43;16.40;;;8.38;;
2868;SDS011;1442;47.448;8.582;2024-01-06T00:36:10;10.23;;;8.02;;
2868;SDS011;1442;47.448;8.582;2024-01-06T00:38:37;9.85;;;7.93;;
2868;SDS011;1442;47.448;8.582;2024-01-06T00:41:05;12.70;;;8.05;;
2868;SDS011;1442;47.448;8.582;2024-01-06T00:43:32;10.05;;;7.82;;
2868;SDS011;1442;47.448;8.582;2024-01-06T00:45:58;10.98;;;8.52;;
2868;SDS011;1442;47.448;8.582;2024-01-06T00:48:25;13.32;;;8.57;;
2868;SDS011;1442;47.448;8.582;2024-01-06T00:50:52;10.60;;;7.70;;
2868;SDS011;1442;47.448;8.582;2024-01-06T00:53:19;11.98;;;7.72;;
2868;SDS011;1442;47.448;8.582;2024-01-06T00:55:45;9.13;;;7.38;;
2868;SDS011;1442;47.448;8.582;2024-01-06T00:58:13;9.68;;;6.93;;
2868;SDS011;1442;47.448;8.582;2024-01-06T01:00:40;9.38;;;6.97;;
2868;SDS011;1442;47.448;8.582;2024-01-06T01:03:07;8.70;;;6.30;;
2868;SDS011;1442;47.448;8.582;2024-01-06T01:05:33;8.30;;;6.13;;
2868;SDS011;1442;47.448;8.582;2024-01-06T01:08:00;8.40;;;6.05;;
2868;SDS011;1442;47.448;8.582;2024-01-06T01:10:27;8.45;;;6.50;;
2868;SDS011;1442;47.448;8.582;2024-01-06T01:12:54;9.48;;;6.75;;
2868;SDS011;1442;47.448;8.582;2024-01-06T01:15:22;10.50;;;7.13;;
2868;SDS011;1442;47.448;8.582;2024-01-06T01:17:48;9.18;;;6.18;;
2868;SDS011;1442;47.448;8.582;2024-01-06T01:20:15;9.48;;;6.28;;
2868;SDS011;1442;47.448;8.582;2024-01-06T01:22:42;9.98;;;6.97;;
2868;SDS011;1442;47.448;8.582;2024-01-06T01:25:09;8.13;;;6.85;;
2868;SDS011;1442;47.448;8.582;2024-01-06T01:27:37;10.60;;;7.55;;
2868;SDS011;1442;47.448;8.582;2024-01-06T01:30:05;9.15;;;7.00;;
2868;SDS011;1442;47.448;8.582;2024-01-06T01:32:33;10.57;;;7.03;;
2868;SDS011;1442;47.448;8.582;2024-01-06T01:35:00;9.13;;;7.00;;
2868;SDS011;1442;47.448;8.582;2024-01-06T01:37:28;9.75;;;6.25;;
2868;SDS011;1442;47.448;8.582;2024-01-06T01:39:55;8.45;;;6.43;;
2868;SDS011;1442;47.448;8.582;2024-01-06T01:42:21;8.32;;;6.50;;
2868;SDS011;1442;47.448;8.582;2024-01-06T01:44:48;10.23;;;7.50;;
2868;SDS011;1442;47.448;8.582;2024-01-06T01:47:15;9.63;;;7.20;;
2868;SDS011;1442;47.448;8.582;2024-01-06T01:49:45;11.23;;;8.48;;
2868;SDS011;1442;47.448;8.582;2024-01-06T01:52:12;11.07;;;7.60;;
2868;SDS011;1442;47.448;8.582;2024-01-06T01:54:39;11.15;;;7.40;;
2868;SDS011;1442;47.448;8.582;2024-01-06T01:57:07;11.35;;;7.07;;
2868;SDS011;1442;47.448;8.582;2024-01-06T01:59:33;8.98;;;6.40;;
2868;SDS011;1442;47.448;8.582;2024-01-06T02:02:00;8.27;;;6.35;;
2868;SDS011;1442;47.448;8.582;2024-01-06T02:04:28;10.00;;;6.38;;
2868;SDS011;1442;47.448;8.582;2024-01-06T02:06:56;10.57;;;6.30;;
2868;SDS011;1442;47.448;8.582;2024-01-06T02:09:23;8.15;;;6.18;;
2868;SDS011;1442;47.448;8.582;2024-01-06T02:11:54;9.85;;;6.28;;
2868;SDS011;1442;47.448;8.582;2024-01-06T02:14:20;7.78;;;6.30;;
2868;SDS011;1442;47.448;8.582;2024-01-06T02:16:47;8.55;;;5.95;;
2868;SDS011;1442;47.448;8.582;2024-01-06T02:19:14;7.60;;;5.82;;
2868;SDS011;1442;47.448;8.582;2024-01-06T02:21:42;7.22;;;5.68;;
2868;SDS011;1442;47.448;8.582;2024-01-06T02:24:11;6.07;;;4.75;;
2868;SDS011;1442;47.448;8.582;2024-01-06T02:26:38;8.15;;;4.07;;
2868;SDS011;1442;47.448;8.582;2024-01-06T02:29:05;5.55;;;4.10;;
2868;SDS011;1442;47.448;8.582;2024-01-06T02:31:31;5.38;;;4.15;;
2868;SDS011;1442;47.448;8.582;2024-01-06T02:33:58;4.30;;;3.47;;
2868;SDS011;1442;47.448;8.582;2024-01-06T02:36:25;4.05;;;3.45;;
2868;SDS011;1442;47.448;8.582;2024-01-06T02:38:51;4.85;;;3.65;;
2868;SDS011;1442;47.448;8.582;2024-01-06T02:41:19;5.35;;;3.65;;
2868;SDS011;1442;47.448;8.582;2024-01-06T02:43:46;4.85;;;4.00;;
2868;SDS011;1442;47.448;8.582;2024-01-06T02:46:13;7.90;;;4.65;;
2868;SDS011;1442;47.448;8.582;2024-01-06T02:48:40;6.05;;;4.25;;
2868;SDS011;1442;47.448;8.582;2024-01-06T02:51:06;5.15;;;4.07;;
2868;SDS011;1442;47.448;8.582;2024-01-06T02:53:33;5.38;;;3.17;;
2868;SDS011;1442;47.448;8.582;2024-01-06T02:56:00;5.15;;;3.40;;
2868;SDS011;1442;47.448;8.582;2024-01-06T02:58:28;5.82;;;3.35;;
2868;SDS011;1442;47.448;8.582;2024-01-06T03:00:54;6.03;;;3.63;;
2868;SDS011;1442;47.448;8.582;2024-01-06T03:03:21;4.40;;;2.55;;
2868;SDS011;1442;47.448;8.582;2024-01-06T03:05:48;5.05;;;3.40;;
2868;SDS011;1442;47.448;8.582;2024-01-06T03:08:15;4.07;;;2.60;;
2868;SDS011;1442;47.448;8.582;2024-01-06T03:10:41;3.67;;;2.58;;
2868;SDS011;1442;47.448;8.582;2024-01-06T03:13:08;2.65;;;2.28;;
2868;SDS011;1442;47.448;8.582;2024-01-06T03:15:37;4.18;;;2.30;;
2868;SDS011;1442;47.448;8.582;2024-01-06T03:18:03;2.30;;;2.10;;
2868;SDS011;1442;47.448;8.582;2024-01-06T03:20:30;3.08;;;2.35;;
2868;SDS011;1442;47.448;8.582;2024-01-06T03:22:57;4.25;;;2.38;;
2868;SDS011;1442;47.448;8.582;2024-01-06T03:25:24;3.75;;;2.05;;
2868;SDS011;1442;47.448;8.582;2024-01-06T03:27:50;2.40;;;1.80;;
2868;SDS011;1442;47.448;8.582;2024-01-06T03:30:17;2.67;;;1.60;;
2868;SDS011;1442;47.448;8.582;2024-01-06T03:32:45;7.05;;;2.10;;
2868;SDS011;1442;47.448;8.582;2024-01-06T03:35:12;3.35;;;1.85;;
2868;SDS011;1442;47.448;8.582;2024-01-06T03:37:40;5.93;;;2.17;;
2868;SDS011;1442;47.448;8.582;2024-01-06T03:40:07;3.10;;;1.73;;
2868;SDS011;1442;47.448;8.582;2024-01-06T03:42:35;2.53;;;2.00;;
2868;SDS011;1442;47.448;8.582;2024-01-06T03:45:02;6.15;;;2.03;;
2868;SDS011;1442;47.448;8.582;2024-01-06T03:47:29;2.58;;;1.58;;
2868;SDS011;1442;47.448;8.582;2024-01-06T03:49:57;4.82;;;2.00;;
2868;SDS011;1442;47.448;8.582;2024-01-06T03:52:24;2.05;;;1.52;;
2868;SDS011;1442;47.448;8.582;2024-01-06T03:54:51;3.03;;;1.77;;
2868;SDS011;1442;47.448;8.582;2024-01-06T03:57:17;3.60;;;2.00;;
2868;SDS011;1442;47.448;8.582;2024-01-06T03:59:44;3.97;;;1.80;;
2868;SDS011;1442;47.448;8.582;2024-01-06T04:02:11;6.78;;;1.95;;
2868;SDS011;1442;47.448;8.582;2024-01-06T04:04:38;3.33;;;2.53;;
2868;SDS011;1442;47.448;8.582;2024-01-06T04:07:06;2.85;;;2.25;;
2868;SDS011;1442;47.448;8.582;2024-01-06T04:09:32;1.67;;;1.58;;
2868;SDS011;1442;47.448;8.582;2024-01-06T04:11:59;4.15;;;1.58;;
2868;SDS011;1442;47.448;8.582;2024-01-06T04:14:27;2.00;;;1.55;;
2868;SDS011;1442;47.448;8.582;2024-01-06T04:16:54;2.00;;;1.70;;
2868;SDS011;1442;47.448;8.582;2024-01-06T04:19:21;3.88;;;1.90;;
2868;SDS011;1442;47.448;8.582;2024-01-06T04:21:48;2.58;;;2.35;;
2868;SDS011;1442;47.448;8.582;2024-01-06T04:24:16;2.72;;;2.10;;
2868;SDS011;1442;47.448;8.582;2024-01-06T04:26:43;3.33;;;2.33;;
2868;SDS011;1442;47.448;8.582;2024-01-06T04:29:11;3.38;;;2.85;;
2868;SDS011;1442;47.448;8.582;2024-01-06T04:31:38;2.85;;;2.53;;
2868;SDS011;1442;47.448;8.582;2024-01-06T04:34:04;5.25;;;2.38;;
2868;SDS011;1442;47.448;8.582;2024-01-06T04:36:31;4.82;;;2.75;;
2868;SDS011;1442;47.448;8.582;2024-01-06T04:38:58;4.07;;;2.60;;
2868;SDS011;1442;47.448;8.582;2024-01-06T04:41:26;4.93;;;3.00;;
2868;SDS011;1442;47.448;8.582;2024-01-06T04:43:52;3.47;;;2.35;;
2868;SDS011;1442;47.448;8.582;2024-01-06T04:46:19;4.72;;;2.38;;
2868;SDS011;1442;47.448;8.582;2024-01-06T04:48:46;2.58;;;2.00;;
2868;SDS011;1442;47.448;8.582;2024-01-06T04:51:13;2.75;;;2.00;;
2868;SDS011;1442;47.448;8.582;2024-01-06T04:53:40;4.75;;;2.20;;
2868;SDS011;1442;47.448;8.582;2024-01-06T04:56:07;3.15;;;2.00;;
2868;SDS011;1442;47.448;8.582;2024-01-06T04:58:35;2.13;;;1.92;;
2868;SDS011;1442;47.448;8.582;2024-01-06T05:01:02;2.90;;;1.73;;
2868;SDS011;1442;47.448;8.582;2024-01-06T05:03:29;2.50;;;2.08;;
2868;SDS011;1442;47.448;8.582;2024-01-06T05:05:56;3.10;;;1.70;;
2868;SDS011;1442;47.448;8.582;2024-01-06T05:08:22;3.72;;;1.50;;
2868;SDS011;1442;47.448;8.582;2024-01-06T05:10:51;3.45;;;1.50;;
2868;SDS011;1442;47.448;8.582;2024-01-06T05:13:19;2.50;;;1.27;;
2868;SDS011;1442;47.448;8.582;2024-01-06T05:15:47;2.95;;;1.13;;
2868;SDS011;1442;47.448;8.582;2024-01-06T05:18:14;3.55;;;1.10;;
2868;SDS011;1442;47.448;8.582;2024-01-06T05:20:40;2.05;;;1.20;;
2868;SDS011;1442;47.448;8.582;2024-01-06T05:23:07;2.72;;;1.35;;
2868;SDS011;1442;47.448;8.582;2024-01-06T05:25:34;1.90;;;1.42;;
2868;SDS011;1442;47.448;8.582;2024-01-06T05:28:01;5.32;;;1.77;;
2868;SDS011;1442;47.448;8.582;2024-01-06T05:30:27;1.90;;;1.10;;
2868;SDS011;1442;47.448;8.582;2024-01-06T05:32:55;1.85;;;1.20;;
2868;SDS011;1442;47.448;8.582;2024-01-06T05:35:22;2.83;;;1.30;;
2868;SDS011;1442;47.448;8.582;2024-01-06T05:37:49;2.38;;;1.15;;
2868;SDS011;1442;47.448;8.582;2024-01-06T05:40:15;1.63;;;1.00;;
2868;SDS011;1442;47.448;8.582;2024-01-06T05:42:42;1.48;;;0.98;;
2868;SDS011;1442;47.448;8.582;2024-01-06T05:45:10;2.17;;;1.20;;
2868;SDS011;1442;47.448;8.582;2024-01-06T05:47:37;3.80;;;1.35;;
2868;SDS011;1442;47.448;8.582;2024-01-06T05:50:06;1.02;;;0.90;;
2868;SDS011;1442;47.448;8.582;2024-01-06T05:52:34;3.15;;;1.33;;
2868;SDS011;1442;47.448;8.582;2024-01-06T05:55:01;3.67;;;1.05;;
2868;SDS011;1442;47.448;8.582;2024-01-06T05:57:27;3.45;;;1.00;;
2868;SDS011;1442;47.448;8.582;2024-01-06T05:59:54;2.85;;;1.35;;
2868;SDS011;1442;47.448;8.582;2024-01-06T06:02:21;2.10;;;1.20;;
2868;SDS011;1442;47.448;8.582;2024-01-06T06:04:48;2.17;;;1.02;;
2868;SDS011;1442;47.448;8.582;2024-01-06T06:07:16;0.85;;;0.80;;
2868;SDS011;1442;47.448;8.582;2024-01-06T06:09:42;3.40;;;0.90;;
2868;SDS011;1442;47.448;8.582;2024-01-06T06:12:12;2.28;;;1.20;;
2868;SDS011;1442;47.448;8.582;2024-01-06T06:14:38;1.58;;;1.00;;
2868;SDS011;1442;47.448;8.582;2024-01-06T06:17:05;1.95;;;1.20;;
2868;SDS011;1442;47.448;8.582;2024-01-06T06:19:32;2.22;;;1.10;;
2868;SDS011;1442;47.448;8.582;2024-01-06T06:21:59;1.60;;;1.00;;
2868;SDS011;1442;47.448;8.582;2024-01-06T06:24:27;2.03;;;1.08;;
2868;SDS011;1442;47.448;8.582;2024-01-06T06:26:54;2.55;;;1.17;;
2868;SDS011;1442;47.448;8.582;2024-01-06T06:29:21;3.50;;;1.17;;
2868;SDS011;1442;47.448;8.582;2024-01-06T06:31:47;1.63;;;1.17;;
2868;SDS011;1442;47.448;8.582;2024-01-06T06:34:14;1.35;;;0.90;;
2868;SDS011;1442;47.448;8.582;2024-01-06T06:36:41;1.75;;;1.10;;
2868;SDS011;1442;47.448;8.582;2024-01-06T06:39:08;5.65;;;1.23;;
2868;SDS011;1442;47.448;8.582;2024-01-06T06:41:36;2.58;;;0.80;;
2868;SDS011;1442;47.448;8.582;2024-01-06T06:44:02;2.33;;;1.00;;
2868;SDS011;1442;47.448;8.582;2024-01-06T06:46:29;1.08;;;0.98;;
2868;SDS011;1442;47.448;8.582;2024-01-06T06:48:56;2.38;;;1.27;;
2868;SDS011;1442;47.448;8.582;2024-01-06T06:51:23;2.60;;;1.17;;
2868;SDS011;1442;47.448;8.582;2024-01-06T06:53:52;3.55;;;1.00;;
2868;SDS011;1442;47.448;8.582;2024-01-06T06:56:18;3.75;;;1.25;;
2868;SDS011;1442;47.448;8.582;2024-01-06T06:58:46;4.45;;;1.50;;
2868;SDS011;1442;47.448;8.582;2024-01-06T07:01:13;1.48;;;1.20;;
2868;SDS011;1442;47.448;8.582;2024-01-06T07:03:40;1.25;;;1.15;;
2868;SDS011;1442;47.448;8.582;2024-01-06T07:06:07;2.53;;;1.00;;
2868;SDS011;1442;47.448;8.582;2024-01-06T07:08:33;2.28;;;1.10;;
2868;SDS011;1442;47.448;8.582;2024-01-06T07:11:00;5.95;;;1.48;;
2868;SDS011;1442;47.448;8.582;2024-01-06T07:13:27;2.65;;;1.42;;
2868;SDS011;1442;47.448;8.582;2024-01-06T07:15:55;3.47;;;1.42;;
2868;SDS011;1442;47.448;8.582;2024-01-06T07:18:22;2.38;;;1.30;;
2868;SDS011;1442;47.448;8.582;2024-01-06T07:20:50;2.10;;;1.30;;
2868;SDS011;1442;47.448;8.582;2024-01-06T07:23:16;2.28;;;1.20;;
2868;SDS011;1442;47.448;8.582;2024-01-06T07:25:43;1.95;;;1.17;;
2868;SDS011;1442;47.448;8.582;2024-01-06T07:28:10;2.53;;;1.33;;
2868;SDS011;1442;47.448;8.582;2024-01-06T07:30:37;3.75;;;1.42;;
2868;SDS011;1442;47.448;8.582;2024-01-06T07:33:05;4.60;;;1.50;;
2868;SDS011;1442;47.448;8.582;2024-01-06T07:35:33;4.55;;;1.40;;
2868;SDS011;1442;47.448;8.582;2024-01-06T07:37:59;1.67;;;1.30;;
2868;SDS011;1442;47.448;8.582;2024-01-06T07:40:26;2.95;;;1.13;;
2868;SDS011;1442;47.448;8.582;2024-01-06T07:42:53;4.90;;;1.33;;
2868;SDS011;1442;47.448;8.582;2024-01-06T07:45:20;5.13;;;1.80;;
2868;SDS011;1442;47.448;8.582;2024-01-06T07:47:46;4.07;;;1.42;;
2868;SDS011;1442;47.448;8.582;2024-01-06T07:50:14;1.42;;;1.00;;
2868;SDS011;1442;47.448;8.582;2024-01-06T07:52:41;1.73;;;1.02;;
2868;SDS011;1442;47.448;8.582;2024-01-06T07:55:08;1.92;;;1.35;;
2868;SDS011;1442;47.448;8.582;2024-01-06T07:57:35;1.75;;;1.20;;
2868;SDS011;1442;47.448;8.582;2024-01-06T08:00:01;4.25;;;1.10;;
2868;SDS011;1442;47.448;8.582;2024-01-06T08:02:29;2.00;;;1.42;;
2868;SDS011;1442;47.448;8.582;2024-01-06T08:04:55;3.53;;;1.10;;
2868;SDS011;1442;47.448;8.582;2024-01-06T08:07:24;2.50;;;1.55;;
2868;SDS011;1442;47.448;8.582;2024-01-06T08:09:51;5.10;;;2.03;;
2868;SDS011;1442;47.448;8.582;2024-01-06T08:12:18;2.45;;;1.30;;
2868;SDS011;1442;47.448;8.582;2024-01-06T08:14:44;5.20;;;1.23;;
2868;SDS011;1442;47.448;8.582;2024-01-06T08:17:11;1.73;;;1.10;;
2868;SDS011;1442;47.448;8.582;2024-01-06T08:19:38;1.33;;;1.20;;
2868;SDS011;1442;47.448;8.582;2024-01-06T08:22:04;3.00;;;1.17;;
2868;SDS011;1442;47.448;8.582;2024-01-06T08:24:34;1.38;;;1.00;;
2868;SDS011;1442;47.448;8.582;2024-01-06T08:27:00;2.65;;;1.20;;
2868;SDS011;1442;47.448;8.582;2024-01-06T08:29:27;1.85;;;1.33;;
2868;SDS011;1442;47.448;8.582;2024-01-06T08:31:54;2.67;;;1.45;;
2868;SDS011;1442;47.448;8.582;2024-01-06T08:34:21;2.50;;;1.50;;
2868;SDS011;1442;47.448;8.582;2024-01-06T08:36:48;2.83;;;1.40;;
2868;SDS011;1442;47.448;8.582;2024-01-06T08:39:15;3.35;;;1.60;;
2868;SDS011;1442;47.448;8.582;2024-01-06T08:41:44;3.60;;;1.40;;
2868;SDS011;1442;47.448;8.582;2024-01-06T08:44:11;2.80;;;1.65;;
2868;SDS011;1442;47.448;8.582;2024-01-06T08:46:38;1.60;;;1.50;;
2868;SDS011;1442;47.448;8.582;2024-01-06T08:49:05;1.73;;;1.63;;
2868;SDS011;1442;47.448;8.582;2024-01-06T08:51:31;4.80;;;1.98;;
2868;SDS011;1442;47.448;8.582;2024-01-06T08:53:58;1.67;;;1.48;;
2868;SDS011;1442;47.448;8.582;2024-01-06T08:56:25;4.00;;;1.60;;
2868;SDS011;1442;47.448;8.582;2024-01-06T08:58:54;2.92;;;1.70;;
2868;SDS011;1442;47.448;8.582;2024-01-06T09:01:22;1.98;;;1.45;;
2868;SDS011;1442;47.448;8.582;2024-01-06T09:03:48;2.25;;;1.70;;
2868;SDS011;1442;47.448;8.582;2024-01-06T09:06:15;2.80;;;1.63;;
2868;SDS011;1442;47.448;8.582;2024-01-06T09:08:42;1.40;;;1.25;;
2868;SDS011;1442;47.448;8.582;2024-01-06T09:11:09;4.43;;;1.98;;
2868;SDS011;1442;47.448;8.582;2024-01-06T09:13:35;1.92;;;1.60;;
2868;SDS011;1442;47.448;8.582;2024-01-06T09:16:04;1.92;;;1.30;;
2868;SDS011;1442;47.448;8.582;2024-01-06T09:18:30;2.80;;;1.75;;
2868;SDS011;1442;47.448;8.582;2024-01-06T09:20:58;2.08;;;1.77;;
2868;SDS011;1442;47.448;8.582;2024-01-06T09:23:24;1.92;;;1.80;;
2868;SDS011;1442;47.448;8.582;2024-01-06T09:25:51;1.40;;;1.23;;
2868;SDS011;1442;47.448;8.582;2024-01-06T09:28:18;3.30;;;1.73;;
2868;SDS011;1442;47.448;8.582;2024-01-06T09:30:46;2.15;;;1.63;;
2868;SDS011;1442;47.448;8.582;2024-01-06T09:33:14;2.05;;;1.50;;
2868;SDS011;1442;47.448;8.582;2024-01-06T09:35:42;2.00;;;1.80;;
2868;SDS011;1442;47.448;8.582;2024-01-06T09:38:10;2.65;;;1.80;;
2868;SDS011;1442;47.448;8.582;2024-01-06T09:40:39;1.70;;;1.60;;
2868;SDS011;1442;47.448;8.582;2024-01-06T09:43:08;4.97;;;2.10;;
2868;SDS011;1442;47.448;8.582;2024-01-06T09:45:35;5.20;;;2.10;;
2868;SDS011;1442;47.448;8.582;2024-01-06T09:48:02;4.22;;;1.85;;
2868;SDS011;1442;47.448;8.582;2024-01-06T09:50:37;4.75;;;2.15;;
2868;SDS011;1442;47.448;8.582;2024-01-06T09:53:06;6.18;;;1.92;;
2868;SDS011;1442;47.448;8.582;2024-01-06T09:55:36;4.68;;;1.80;;
2868;SDS011;1442;47.448;8.582;2024-01-06T09:58:03;2.65;;;1.85;;
2868;SDS011;1442;47.448;8.582;2024-01-06T10:00:31;2.67;;;1.88;;
2868;SDS011;1442;47.448;8.582;2024-01-06T10:02:58;3.95;;;1.80;;
2868;SDS011;1442;47.448;8.582;2024-01-06T10:05:25;2.03;;;1.70;;
2868;SDS011;1442;47.448;8.582;2024-01-06T10:07:53;4.72;;;2.30;;
2868;SDS011;1442;47.448;8.582;2024-01-06T10:10:20;1.80;;;1.70;;
2868;SDS011;1442;47.448;8.582;2024-01-06T10:12:48;3.00;;;1.65;;
2868;SDS011;1442;47.448;8.582;2024-01-06T10:15:20;1.85;;;1.65;;
2868;SDS011;1442;47.448;8.582;2024-01-06T10:17:46;1.85;;;1.23;;
2868;SDS011;1442;47.448;8.582;2024-01-06T10:20:13;3.97;;;1.30;;
2868;SDS011;1442;47.448;8.582;2024-01-06T10:22:42;4.57;;;1.60;;
2868;SDS011;1442;47.448;8.582;2024-01-06T10:25:11;2.30;;;1.20;;
2868;SDS011;1442;47.448;8.582;2024-01-06T10:27:40;2.72;;;1.38;;
2868;SDS011;1442;47.448;8.582;2024-01-06T10:30:08;2.28;;;1.27;;
2868;SDS011;1442;47.448;8.582;2024-01-06T10:32:36;3.00;;;1.63;;
2868;SDS011;1442;47.448;8.582;2024-01-06T10:35:03;1.98;;;1.42;;
2868;SDS011;1442;47.448;8.582;2024-01-06T10:37:31;4.20;;;1.80;;
2868;SDS011;1442;47.448;8.582;2024-01-06T10:40:08;2.03;;;1.50;;
2868;SDS011;1442;47.448;8.582;2024-01-06T10:42:38;4.03;;;2.00;;
2868;SDS011;1442;47.448;8.582;2024-01-06T10:45:07;2.08;;;1.77;;
2868;SDS011;1442;47.448;8.582;2024-01-06T10:47:35;2.03;;;1.48;;
2868;SDS011;1442;47.448;8.582;2024-01-06T10:50:02;2.00;;;1.80;;
2868;SDS011;1442;47.448;8.582;2024-01-06T10:52:30;2.15;;;1.65;;
2868;SDS011;1442;47.448;8.582;2024-01-06T10:54:57;5.07;;;1.80;;
2868;SDS011;1442;47.448;8.582;2024-01-06T10:57:24;1.60;;;1.50;;
2868;SDS011;1442;47.448;8.582;2024-01-06T10:59:54;2.13;;;1.60;;
2868;SDS011;1442;47.448;8.582;2024-01-06T11:02:24;2.97;;;1.35;;
2868;SDS011;1442;47.448;8.582;2024-01-06T11:04:52;3.75;;;1.90;;
2868;SDS011;1442;47.448;8.582;2024-01-06T11:07:19;1.98;;;1.60;;
2868;SDS011;1442;47.448;8.582;2024-01-06T11:09:49;3.80;;;2.00;;
2868;SDS011;1442;47.448;8.582;2024-01-06T11:12:18;4.55;;;1.77;;
2868;SDS011;1442;47.448;8.582;2024-01-06T11:14:45;3.00;;;1.77;;
2868;SDS011;1442;47.448;8.582;2024-01-06T11:17:14;3.28;;;1.98;;
2868;SDS011;1442;47.448;8.582;2024-01-06T11:20:15;3.35;;;1.50;;
2868;SDS011;1442;47.448;8.582;2024-01-06T11:22:41;3.47;;;1.92;;
2868;SDS011;1442;47.448;8.582;2024-01-06T11:25:16;3.00;;;1.50;;
2868;SDS011;1442;47.448;8.582;2024-01-06T11:27:45;4.50;;;1.90;;
2868;SDS011;1442;47.448;8.582;2024-01-06T11:30:19;7.47;;;2.00;;
2868;SDS011;1442;47.448;8.582;2024-01-06T11:32:49;5.63;;;2.60;;
2868;SDS011;1442;47.448;8.582;2024-01-06T11:35:17;4.28;;;3.17;;
2868;SDS011;1442;47.448;8.582;2024-01-06T11:37:52;5.63;;;3.50;;
2868;SDS011;1442;47.448;8.582;2024-01-06T11:40:22;7.35;;;3.40;;
2868;SDS011;1442;47.448;8.582;2024-01-06T11:42:59;9.52;;;3.95;;
2868;SDS011;1442;47.448;8.582;2024-01-06T11:45:28;4.13;;;3.13;;
2868;SDS011;1442;47.448;8.582;2024-01-06T11:47:57;5.40;;;3.00;;
2868;SDS011;1442;47.448;8.582;2024-01-06T11:50:27;4.13;;;2.33;;
2868;SDS011;1442;47.448;8.582;2024-01-06T11:52:54;6.40;;;2.40;;
2868;SDS011;1442;47.448;8.582;2024-01-06T11:55:21;2.95;;;2.30;;
2868;SDS011;1442;47.448;8.582;2024-01-06T11:57:48;5.85;;;2.20;;
2868;SDS011;1442;47.448;8.582;2024-01-06T12:00:15;2.58;;;2.15;;
2868;SDS011;1442;47.448;8.582;2024-01-06T12:02:43;4.68;;;2.40;;
2868;SDS011;1442;47.448;8.582;2024-01-06T12:05:14;3.45;;;2.00;;
2868;SDS011;1442;47.448;8.582;2024-01-06T12:07:43;2.50;;;2.05;;
2868;SDS011;1442;47.448;8.582;2024-01-06T12:10:10;4.28;;;2.40;;
2868;SDS011;1442;47.448;8.582;2024-01-06T12:12:37;2.17;;;1.95;;
2868;SDS011;1442;47.448;8.582;2024-01-06T12:15:03;5.65;;;2.00;;
2868;SDS011;1442;47.448;8.582;2024-01-06T12:17:31;3.63;;;1.90;;
2868;SDS011;1442;47.448;8.582;2024-01-06T12:19:58;2.08;;;1.80;;
2868;SDS011;1442;47.448;8.582;2024-01-06T12:22:26;2.58;;;1.98;;
2868;SDS011;1442;47.448;8.582;2024-01-06T12:24:53;1.95;;;1.75;;
2868;SDS011;1442;47.448;8.582;2024-01-06T12:27:19;2.25;;;1.83;;
2868;SDS011;1442;47.448;8.582;2024-01-06T12:29:46;2.38;;;1.92;;
2868;SDS011;1442;47.448;8.582;2024-01-06T12:32:13;4.00;;;1.85;;
2868;SDS011;1442;47.448;8.582;2024-01-06T12:34:40;2.78;;;1.80;;
2868;SDS011;1442;47.448;8.582;2024-01-06T12:37:06;3.28;;;2.00;;
2868;SDS011;1442;47.448;8.582;2024-01-06T12:39:35;3.63;;;2.20;;
2868;SDS011;1442;47.448;8.582;2024-01-06T12:42:02;2.28;;;2.08;;
2868;SDS011;1442;47.448;8.582;2024-01-06T12:44:29;2.63;;;1.90;;
2868;SDS011;1442;47.448;8.582;2024-01-06T12:46:57;3.40;;;1.80;;
2868;SDS011;1442;47.448;8.582;2024-01-06T12:49:24;2.72;;;2.10;;
2868;SDS011;1442;47.448;8.582;2024-01-06T12:51:51;5.85;;;1.98;;
2868;SDS011;1442;47.448;8.582;2024-01-06T12:54:18;3.40;;;2.10;;
2868;SDS011;1442;47.448;8.582;2024-01-06T12:56:46;3.30;;;2.40;;
2868;SDS011;1442;47.448;8.582;2024-01-06T12:59:14;3.15;;;1.98;;
2868;SDS011;1442;47.448;8.582;2024-01-06T13:01:41;3.70;;;2.08;;
2868;SDS011;1442;47.448;8.582;2024-01-06T13:04:08;3.90;;;2.20;;
2868;SDS011;1442;47.448;8.582;2024-01-06T13:06:35;8.35;;;2.55;;
2868;SDS011;1442;47.448;8.582;2024-01-06T13:09:02;6.95;;;2.28;;
2868;SDS011;1442;47.448;8.582;2024-01-06T13:11:31;3.92;;;2.03;;
2868;SDS011;1442;47.448;8.582;2024-01-06T13:14:00;2.05;;;1.85;;
2868;SDS011;1442;47.448;8.582;2024-01-06T13:16:27;2.38;;;2.00;;
2868;SDS011;1442;47.448;8.582;2024-01-06T13:18:54;5.07;;;2.10;;
2868;SDS011;1442;47.448;8.582;2024-01-06T13:21:20;4.88;;;2.42;;
2868;SDS011;1442;47.448;8.582;2024-01-06T13:23:47;4.57;;;2.40;;
2868;SDS011;1442;47.448;8.582;2024-01-06T13:26:14;3.55;;;2.33;;
2868;SDS011;1442;47.448;8.582;2024-01-06T13:28:41;4.68;;;2.13;;
2868;SDS011;1442;47.448;8.582;2024-01-06T13:31:09;4.88;;;2.22;;
2868;SDS011;1442;47.448;8.582;2024-01-06T13:33:36;4.43;;;2.03;;
2868;SDS011;1442;47.448;8.582;2024-01-06T13:36:03;2.78;;;2.03;;
2868;SDS011;1442;47.448;8.582;2024-01-06T13:38:31;3.38;;;2.53;;
2868;SDS011;1442;47.448;8.582;2024-01-06T13:40:58;4.13;;;1.98;;
2868;SDS011;1442;47.448;8.582;2024-01-06T13:43:25;3.45;;;1.98;;
2868;SDS011;1442;47.448;8.582;2024-01-06T13:45:51;4.03;;;1.90;;
2868;SDS011;1442;47.448;8.582;2024-01-06T13:48:19;3.05;;;1.80;;
2868;SDS011;1442;47.448;8.582;2024-01-06T13:50:46;4.85;;;2.08;;
2868;SDS011;1442;47.448;8.582;2024-01-06T13:53:13;5.43;;;2.60;;
2868;SDS011;1442;47.448;8.582;2024-01-06T13:55:41;3.45;;;2.17;;
2868;SDS011;1442;47.448;8.582;2024-01-06T13:58:08;6.60;;;2.20;;
2868;SDS011;1442;47.448;8.582;2024-01-06T14:00:35;3.58;;;2.42;;
2868;SDS011;1442;47.448;8.582;2024-01-06T14:03:02;2.47;;;1.80;;
2868;SDS011;1442;47.448;8.582;2024-01-06T14:05:33;6.35;;;1.88;;
2868;SDS011;1442;47.448;8.582;2024-01-06T14:08:00;7.40;;;2.42;;
2868;SDS011;1442;47.448;8.582;2024-01-06T14:10:26;3.83;;;1.88;;
2868;SDS011;1442;47.448;8.582;2024-01-06T14:12:53;5.13;;;2.28;;
2868;SDS011;1442;47.448;8.582;2024-01-06T14:15:20;5.45;;;2.30;;
2868;SDS011;1442;47.448;8.582;2024-01-06T14:17:47;3.03;;;1.90;;
2868;SDS011;1442;47.448;8.582;2024-01-06T14:20:15;4.32;;;2.00;;
2868;SDS011;1442;47.448;8.582;2024-01-06T14:22:44;4.35;;;2.15;;
2868;SDS011;1442;47.448;8.582;2024-01-06T14:25:11;2.25;;;1.83;;
2868;SDS011;1442;47.448;8.582;2024-01-06T14:27:38;4.63;;;1.83;;
2868;SDS011;1442;47.448;8.582;2024-01-06T14:30:06;9.80;;;2.17;;
2868;SDS011;1442;47.448;8.582;2024-01-06T14:32:34;6.47;;;2.30;;
2868;SDS011;1442;47.448;8.582;2024-01-06T14:35:01;6.47;;;1.85;;
2868;SDS011;1442;47.448;8.582;2024-01-06T14:37:28;4.10;;;2.50;;
2868;SDS011;1442;47.448;8.582;2024-01-06T14:39:56;2.60;;;1.83;;
2868;SDS011;1442;47.448;8.582;2024-01-06T14:42:23;4.43;;;1.83;;
2868;SDS011;1442;47.448;8.582;2024-01-06T14:44:50;4.28;;;2.42;;
2868;SDS011;1442;47.448;8.582;2024-01-06T14:47:17;3.65;;;2.33;;
2868;SDS011;1442;47.448;8.582;2024-01-06T14:49:43;2.45;;;2.10;;
2868;SDS011;1442;47.448;8.582;2024-01-06T14:52:10;5.40;;;2.28;;
2868;SDS011;1442;47.448;8.582;2024-01-06T14:54:37;5.47;;;2.30;;
2868;SDS011;1442;47.448;8.582;2024-01-06T14:57:05;8.73;;;2.40;;
2868;SDS011;1442;47.448;8.582;2024-01-06T14:59:33;5.50;;;2.38;;
2868;SDS011;1442;47.448;8.582;2024-01-06T15:02:01;7.45;;;2.53;;
2868;SDS011;1442;47.448;8.582;2024-01-06T15:04:29;5.65;;;2.60;;
2868;SDS011;1442;47.448;8.582;2024-01-06T15:06:55;4.95;;;2.42;;
2868;SDS011;1442;47.448;8.582;2024-01-06T15:09:22;5.78;;;2.70;;
2868;SDS011;1442;47.448;8.582;2024-01-06T15:11:51;6.13;;;2.53;;
2868;SDS011;1442;47.448;8.582;2024-01-06T15:14:19;5.30;;;2.50;;
2868;SDS011;1442;47.448;8.582;2024-01-06T15:16:46;3.92;;;2.60;;